Mckinley Sea — WDE5024 — position and weather

sailwx.info

Track history (hours):
 
Tides and Currents Weather Stations Pressure Air Temp Water Temp Dewpoint Dewpoint Depression Visibility Wind Speed Wind Dir Waves Ship Positions

Mckinley Sea

Owner: Kirby Offshore Marine, LLC, Staten Island, NY. More information available from US FCC via Universal Licensing System and Coast Guard Vessel Documentation Center.

Last reported at 2017-Nov-17 22:14 UTC. Time now 2017-Nov-18 02:57 UTC.
Position N 42°16' W 070°41'.

Length 41 m; draft 6 m.

Type: . MMSI: 367360980.

Date/timePositionNaut miles runAvg speedWind from/ knotsBaromVisibWave heightAir tempDewpointWater temp
2017-Nov-17 22:14N 42°16' W 070°41'4 9.1
2017-Nov-17 21:47N 42°19' W 070°45'3 9.2
2017-Nov-17 21:30N 42°21' W 070°48'4 8.5
2017-Nov-17 21:00N 42°23' W 070°52'5 8.8
2017-Nov-17 20:23N 42°20' W 070°58'3 8.7
2017-Nov-17 20:00N 42°21' W 071°02'2 3.0
2017-Nov-17 19:24N 42°23' W 071°01'0 0.0
2017-Nov-17 19:00N 42°23' W 071°01'0 0.0
2017-Nov-17 17:45N 42°23' W 071°01'0 0.0
2017-Nov-17 14:06N 42°23' W 071°01'0 0.0
2017-Nov-17 13:36N 42°23' W 071°01'0 0.0
2017-Nov-17 13:06N 42°23' W 071°01'0 0.0
2017-Nov-17 13:00N 42°23' W 071°01'0 0.0
2017-Nov-17 12:06N 42°23' W 071°01'0 0.0
2017-Nov-17 11:54N 42°23' W 071°01'0 0.0
2017-Nov-17 11:30N 42°23' W 071°01'0 0.0
2017-Nov-17 10:54N 42°23' W 071°01'0 0.0
2017-Nov-17 10:24N 42°23' W 071°01'0 0.0
2017-Nov-17 07:37N 42°23' W 071°01'0 0.0
2017-Nov-17 07:09N 42°23' W 071°01'0 0.1
2017-Nov-17 06:57N 42°23' W 071°01'0 0.0
2017-Nov-17 06:27N 42°23' W 071°01'0 0.0
2017-Nov-17 05:57N 42°23' W 071°01'0 0.0
2017-Nov-17 05:15N 42°23' W 071°01'0 0.0
2017-Nov-17 04:51N 42°23' W 071°01'0 0.0
2017-Nov-17 04:09N 42°23' W 071°01'0 0.0
2017-Nov-17 03:57N 42°23' W 071°01'0 0.0
2017-Nov-17 01:06N 42°23' W 071°01'0 0.0
2017-Nov-17 00:54N 42°23' W 071°01'0 0.0
2017-Nov-17 00:24N 42°23' W 071°01'0 0.0
2017-Nov-17 00:00N 42°23' W 071°01'0 0.0
2017-Nov-16 23:30N 42°23' W 071°01'0 0.3
2017-Nov-16 23:00N 42°23' W 071°01'0 0.9
2017-Nov-16 22:30N 42°24' W 071°01'2 2.9
2017-Nov-16 21:59N 42°23' W 071°03'3 5.4
2017-Nov-16 21:30N 42°21' W 071°01'3 6.1
2017-Nov-16 21:00N 42°20' W 070°57'3 6.1
2017-Nov-16 20:30N 42°23' W 070°54'3 6.4
2017-Nov-16 20:00N 42°23' W 070°50'3 6.5
2017-Nov-16 19:30N 42°21' W 070°46'3 7.0
2017-Nov-16 19:00N 42°19' W 070°42'4 7.1
2017-Nov-16 18:30N 42°16' W 070°39'4 7.2
2017-Nov-16 17:56N 42°13' W 070°35'101 5.5
2017-Nov-15 23:46N 41°10' W 072°20'2 4.5
2017-Nov-15 23:22N 41°09' W 072°22'2 5.3
2017-Nov-15 23:00N 41°09' W 072°25'3 5.5
2017-Nov-15 22:27N 41°09' W 072°29'3 5.6
2017-Nov-15 21:57N 41°08' W 072°32'3 5.8
2017-Nov-15 21:27N 41°07' W 072°36'3 6.4
2017-Nov-15 21:00N 41°07' W 072°40'45 7.2
2017-Nov-15 14:41N 40°55' W 073°38'3 6.5
2017-Nov-15 14:12N 40°54' W 073°42'5 6.3
2017-Nov-15 13:22N 40°50' W 073°47'2 5.7
2017-Nov-15 13:00N 40°48' W 073°47'3 6.3
2017-Nov-15 12:30N 40°48' W 073°52'3 5.4
2017-Nov-15 12:00N 40°47' W 073°55'3 6.4
2017-Nov-15 11:30N 40°45' W 073°58'3 5.7
2017-Nov-15 11:00N 40°42' W 073°60'3 6.9
2017-Nov-15 10:30N 40°40' W 074°03'0 0.3
2017-Nov-15 10:00N 40°40' W 074°03'0 0.1
2017-Nov-15 09:30N 40°40' W 074°03'0 0.3
2017-Nov-15 09:00N 40°40' W 074°03'1 2.4
2017-Nov-15 08:30N 40°39' W 074°04'2 4.9
2017-Nov-15 08:00N 40°39' W 074°07'2 4.7
2017-Nov-15 07:30N 40°39' W 074°10'2 3.5
2017-Nov-15 07:00N 40°38' W 074°12'0 0.2
2017-Nov-15 06:30N 40°38' W 074°12'0 0.0
2017-Nov-15 05:59N 40°38' W 074°12'0 0.0
2017-Nov-15 05:20N 40°38' W 074°12'0 0.0
2017-Nov-15 04:56N 40°38' W 074°12'0 0.0
2017-Nov-15 04:26N 40°38' W 074°12'0 0.0
2017-Nov-15 03:56N 40°38' W 074°12'0 0.0
2017-Nov-15 03:29N 40°38' W 074°12'0 0.0
2017-Nov-15 02:56N 40°38' W 074°12'0 0.0
2017-Nov-15 02:26N 40°38' W 074°12'0 0.0
2017-Nov-15 01:56N 40°38' W 074°12'0 0.0
2017-Nov-15 01:26N 40°38' W 074°12'0 0.0
2017-Nov-15 00:44N 40°38' W 074°12'0 0.0
2017-Nov-15 00:26N 40°38' W 074°12'0 0.0
2017-Nov-14 23:38N 40°38' W 074°12'0 0.0
2017-Nov-14 23:14N 40°38' W 074°12'0 0.0
2017-Nov-14 22:50N 40°38' W 074°12'0 0.0
2017-Nov-14 22:26N 40°38' W 074°12'0 0.0
2017-Nov-14 21:53N 40°38' W 074°12'0 0.0
2017-Nov-14 21:29N 40°38' W 074°12'0 0.0
2017-Nov-14 20:59N 40°38' W 074°12'0 0.0
2017-Nov-14 20:26N 40°38' W 074°12'0 0.0
2017-Nov-14 19:59N 40°38' W 074°12'0 0.0
2017-Nov-14 19:29N 40°38' W 074°12'0 0.0
2017-Nov-14 18:59N 40°38' W 074°12'0 0.0
2017-Nov-14 18:26N 40°38' W 074°12'0 0.0
2017-Nov-14 17:53N 40°38' W 074°12'0 0.0
2017-Nov-14 17:26N 40°38' W 074°12'0 0.0
2017-Nov-14 16:50N 40°38' W 074°12'0 0.0
2017-Nov-14 16:29N 40°38' W 074°12'0 0.0
2017-Nov-14 15:53N 40°38' W 074°12'0 0.0
2017-Nov-14 15:05N 40°38' W 074°12'0 0.0
2017-Nov-14 14:59N 40°38' W 074°12'0 0.0
2017-Nov-14 14:17N 40°38' W 074°12'0 0.0
2017-Nov-14 13:59N 40°38' W 074°12'0 0.0
2017-Nov-14 13:29N 40°38' W 074°12'0 0.0
2017-Nov-14 12:50N 40°38' W 074°12'0 0.0
2017-Nov-14 12:29N 40°38' W 074°12'0 0.0
2017-Nov-14 11:41N 40°38' W 074°12'0 0.0
2017-Nov-14 11:29N 40°38' W 074°12'0 0.0
2017-Nov-14 10:56N 40°38' W 074°12'0 0.0
2017-Nov-14 10:29N 40°38' W 074°12'0 0.0
2017-Nov-14 09:53N 40°38' W 074°12'0 0.0
2017-Nov-14 09:29N 40°38' W 074°12'0 0.0
2017-Nov-14 08:53N 40°38' W 074°12'0 0.0
2017-Nov-14 07:53N 40°38' W 074°12'0 0.0
2017-Nov-14 05:41N 40°38' W 074°12'0 0.0
2017-Nov-14 05:23N 40°38' W 074°12'0 0.0
2017-Nov-14 04:38N 40°38' W 074°12'0 0.0
2017-Nov-14 04:29N 40°38' W 074°12'0 0.0
2017-Nov-14 03:59N 40°38' W 074°12'0 0.0
2017-Nov-14 03:29N 40°38' W 074°12'0 0.0
2017-Nov-14 02:53N 40°38' W 074°12'0 0.0
2017-Nov-14 01:08N 40°38' W 074°12'0 0.0
2017-Nov-14 00:47N 40°38' W 074°12'0 0.0
2017-Nov-14 00:23N 40°38' W 074°12'0 0.0
2017-Nov-13 23:59N 40°38' W 074°12'0 0.0
2017-Nov-13 23:29N 40°38' W 074°12'0 0.0
2017-Nov-13 22:59N 40°38' W 074°12'0 0.0
2017-Nov-13 22:29N 40°38' W 074°12'0 0.0
2017-Nov-13 21:59N 40°38' W 074°12'8 0.4
2017-Nov-13 02:01N 40°40' W 074°03'0 0.0
2017-Nov-13 01:31N 40°40' W 074°03'0 0.0
2017-Nov-13 01:00N 40°40' W 074°03'0 0.1
2017-Nov-13 00:31N 40°40' W 074°03'0 0.0
2017-Nov-13 00:01N 40°40' W 074°03'0 0.2
2017-Nov-12 23:31N 40°40' W 074°03'0 0.3
2017-Nov-12 23:01N 40°40' W 074°03'0 0.1
2017-Nov-12 22:30N 40°40' W 074°03'0 0.0
2017-Nov-12 22:00N 40°40' W 074°03'3 6.9
2017-Nov-12 21:31N 40°39' W 074°07'2 4.5
2017-Nov-12 21:00N 40°38' W 074°10'0 0.0
2017-Nov-12 20:30N 40°38' W 074°10'0 0.0
2017-Nov-12 20:00N 40°38' W 074°10'0 0.0
2017-Nov-12 19:30N 40°38' W 074°10'0 0.0
2017-Nov-12 19:00N 40°38' W 074°10'0 0.0
2017-Nov-12 18:30N 40°38' W 074°10'4 7.4
2017-Nov-12 18:00N 40°39' W 074°05'2 3.9
2017-Nov-12 17:30N 40°40' W 074°03'1 1.8
2017-Nov-12 17:00N 40°39' W 074°04'1 1.8
2017-Nov-12 16:31N 40°38' W 074°04'2 4.4
2017-Nov-12 16:01N 40°39' W 074°02'3 6.9
2017-Nov-12 15:31N 40°42' W 073°59'4 8.7
2017-Nov-12 15:00N 40°46' W 073°57'5 8.2
2017-Nov-12 14:27N 40°48' W 073°51'3 7.3
2017-Nov-12 14:00N 40°49' W 073°47'49 8.4
2017-Nov-12 08:13N 41°06' W 072°47'2 9.2
2017-Nov-12 07:59N 41°06' W 072°44'4 9.4
2017-Nov-12 07:30N 41°07' W 072°38'5 9.7
2017-Nov-12 07:00N 41°08' W 072°32'5 9.9
2017-Nov-12 06:30N 41°10' W 072°25'5 9.4
2017-Nov-12 06:00N 41°11' W 072°19'5 8.7
2017-Nov-12 05:29N 41°13' W 072°14'95 6.2
2017-Nov-11 14:10N 42°15' W 070°38'3 9.0
2017-Nov-11 13:53N 42°17' W 070°41'6 8.9
2017-Nov-11 13:10N 42°22' W 070°47'4 8.7
2017-Nov-11 12:43N 42°23' W 070°52'2 8.8
2017-Nov-11 12:30N 42°22' W 070°54'5 8.4
2017-Nov-11 11:58N 42°20' W 070°59'4 8.0
2017-Nov-11 11:30N 42°23' W 071°03'1 2.3
2017-Nov-11 11:00N 42°23' W 071°01'0 0.0
2017-Nov-11 10:27N 42°23' W 071°01'0 0.0
2017-Nov-11 10:00N 42°23' W 071°01'0 0.0
2017-Nov-11 09:27N 42°23' W 071°01'0 0.0
2017-Nov-11 08:57N 42°23' W 071°01'0 0.0
2017-Nov-11 08:27N 42°23' W 071°01'0 0.0
2017-Nov-11 07:54N 42°23' W 071°01'0 0.0
2017-Nov-11 07:30N 42°23' W 071°01'0 0.0
2017-Nov-11 06:54N 42°23' W 071°01'0 0.0
2017-Nov-11 05:55N 42°23' W 071°01'0 0.1
2017-Nov-11 05:28N 42°23' W 071°02'0 0.0
2017-Nov-11 04:52N 42°23' W 071°02'0 0.0
2017-Nov-11 04:25N 42°23' W 071°02'0 0.0
2017-Nov-11 02:37N 42°23' W 071°02'0 0.0
2017-Nov-11 02:25N 42°23' W 071°02'0 0.0
2017-Nov-10 12:01N 42°23' W 071°02'0 0.0
2017-Nov-10 11:43N 42°23' W 071°02'0 0.1
2017-Nov-10 11:11N 42°23' W 071°01'0 0.0
2017-Nov-10 11:00N 42°23' W 071°01'0 0.7
2017-Nov-10 10:29N 42°23' W 071°01'0 0.0
2017-Nov-10 09:59N 42°23' W 071°01'1 2.7
2017-Nov-10 09:30N 42°23' W 071°03'1 3.0
2017-Nov-10 09:00N 42°22' W 071°02'0 0.1
2017-Nov-10 07:52N 42°22' W 071°02'0 0.1
2017-Nov-10 07:28N 42°22' W 071°02'0 0.0
2017-Nov-10 06:52N 42°22' W 071°02'0 0.1
2017-Nov-10 06:22N 42°22' W 071°02'0 0.0
2017-Nov-10 05:58N 42°22' W 071°02'0 0.0
2017-Nov-10 05:28N 42°22' W 071°02'0 0.0
2017-Nov-10 04:46N 42°22' W 071°02'0 0.0
2017-Nov-10 04:27N 42°22' W 071°02'0 0.0
2017-Nov-10 03:58N 42°22' W 071°02'0 0.0
2017-Nov-10 03:22N 42°22' W 071°02'0 0.0
2017-Nov-10 02:58N 42°22' W 071°02'0 0.2
2017-Nov-10 02:28N 42°22' W 071°02'0 0.1
2017-Nov-10 01:40N 42°21' W 071°02'0 0.0
2017-Nov-10 01:22N 42°21' W 071°02'0 0.0
2017-Nov-10 00:58N 42°21' W 071°02'0 0.0
2017-Nov-10 00:28N 42°21' W 071°02'0 0.0
2017-Nov-09 23:51N 42°21' W 071°02'0 0.1
2017-Nov-09 23:28N 42°22' W 071°02'0 0.1
2017-Nov-09 22:52N 42°22' W 071°02'0 0.1
2017-Nov-09 22:28N 42°22' W 071°02'0 0.1
2017-Nov-09 21:49N 42°22' W 071°02'0 0.1
2017-Nov-09 21:22N 42°21' W 071°02'0 0.1
2017-Nov-09 20:58N 42°21' W 071°02'0 0.2
2017-Nov-09 20:30N 42°21' W 071°02'1 1.0
2017-Nov-09 20:00N 42°21' W 071°01'3 6.7
2017-Nov-09 19:30N 42°20' W 070°57'3 6.8
2017-Nov-09 19:00N 42°23' W 070°54'3 5.4
2017-Nov-09 18:30N 42°23' W 070°50'3 6.9
2017-Nov-09 18:00N 42°22' W 070°46'4 7.1
2017-Nov-09 17:30N 42°19' W 070°43'4 7.2
2017-Nov-09 17:01N 42°16' W 070°39'92 5.1
2017-Nov-08 23:03N 41°14' W 072°09'1 9.8
2017-Nov-08 22:56N 41°14' W 072°11'910.0
2017-Nov-08 22:05N 41°11' W 072°22'1 9.7
2017-Nov-08 22:00N 41°11' W 072°23'5 9.1
2017-Nov-08 21:28N 41°09' W 072°29'4 8.5
2017-Nov-08 21:00N 41°08' W 072°34'55 6.9
2017-Nov-08 13:02N 40°53' W 073°43'4 7.4
2017-Nov-08 12:32N 40°50' W 073°46'0 7.7
2017-Nov-08 12:30N 40°50' W 073°47'3 5.6
2017-Nov-08 12:00N 40°48' W 073°50'3 6.8
2017-Nov-08 11:30N 40°48' W 073°54'3 5.1
2017-Nov-08 11:00N 40°46' W 073°57'2 4.3
2017-Nov-08 10:30N 40°45' W 073°58'2 4.3
2017-Nov-08 10:00N 40°42' W 073°59'2 3.9
2017-Nov-08 09:30N 40°41' W 074°01'2 3.8
2017-Nov-08 09:00N 40°40' W 074°03'0 0.8
2017-Nov-08 08:30N 40°40' W 074°03'1 1.4
2017-Nov-08 08:00N 40°39' W 074°03'3 6.0
2017-Nov-08 07:30N 40°39' W 074°07'3 6.0
2017-Nov-08 07:00N 40°39' W 074°11'2 4.4
2017-Nov-08 06:29N 40°36' W 074°12'0 0.0
2017-Nov-08 05:57N 40°36' W 074°12'0 0.1
2017-Nov-08 05:27N 40°36' W 074°12'0 0.0
2017-Nov-08 05:00N 40°36' W 074°12'  
Track history (hours):
 
Tides and Currents Weather Stations Pressure Air Temp Water Temp Dewpoint Dewpoint Depression Visibility Wind Speed Wind Dir Waves Ship Positions

Mckinley Sea

Owner: Kirby Offshore Marine, LLC, Staten Island, NY. More information available from US FCC via Universal Licensing System and Coast Guard Vessel Documentation Center.

Last reported at 2017-Nov-17 22:14 UTC. Time now 2017-Nov-18 02:57 UTC.
Position N 42°16' W 070°41'.

Length 41 m; draft 6 m.

Type: . MMSI: 367360980.

Date/timePositionNaut miles runAvg speedWind from/ knotsBaromVisibWave heightAir tempDewpointWater temp
2017-Nov-17 22:14N 42°16' W 070°41'4 9.1
2017-Nov-17 21:47N 42°19' W 070°45'3 9.2
2017-Nov-17 21:30N 42°21' W 070°48'4 8.5
2017-Nov-17 21:00N 42°23' W 070°52'5 8.8
2017-Nov-17 20:23N 42°20' W 070°58'3 8.7
2017-Nov-17 20:00N 42°21' W 071°02'2 3.0
2017-Nov-17 19:24N 42°23' W 071°01'0 0.0
2017-Nov-17 19:00N 42°23' W 071°01'0 0.0
2017-Nov-17 17:45N 42°23' W 071°01'0 0.0
2017-Nov-17 14:06N 42°23' W 071°01'0 0.0
2017-Nov-17 13:36N 42°23' W 071°01'0 0.0
2017-Nov-17 13:06N 42°23' W 071°01'0 0.0
2017-Nov-17 13:00N 42°23' W 071°01'0 0.0
2017-Nov-17 12:06N 42°23' W 071°01'0 0.0
2017-Nov-17 11:54N 42°23' W 071°01'0 0.0
2017-Nov-17 11:30N 42°23' W 071°01'0 0.0
2017-Nov-17 10:54N 42°23' W 071°01'0 0.0
2017-Nov-17 10:24N 42°23' W 071°01'0 0.0
2017-Nov-17 07:37N 42°23' W 071°01'0 0.0
2017-Nov-17 07:09N 42°23' W 071°01'0 0.1
2017-Nov-17 06:57N 42°23' W 071°01'0 0.0
2017-Nov-17 06:27N 42°23' W 071°01'0 0.0
2017-Nov-17 05:57N 42°23' W 071°01'0 0.0
2017-Nov-17 05:15N 42°23' W 071°01'0 0.0
2017-Nov-17 04:51N 42°23' W 071°01'0 0.0
2017-Nov-17 04:09N 42°23' W 071°01'0 0.0
2017-Nov-17 03:57N 42°23' W 071°01'0 0.0
2017-Nov-17 01:06N 42°23' W 071°01'0 0.0
2017-Nov-17 00:54N 42°23' W 071°01'0 0.0
2017-Nov-17 00:24N 42°23' W 071°01'0 0.0
2017-Nov-17 00:00N 42°23' W 071°01'0 0.0
2017-Nov-16 23:30N 42°23' W 071°01'0 0.3
2017-Nov-16 23:00N 42°23' W 071°01'0 0.9
2017-Nov-16 22:30N 42°24' W 071°01'2 2.9
2017-Nov-16 21:59N 42°23' W 071°03'3 5.4
2017-Nov-16 21:30N 42°21' W 071°01'3 6.1
2017-Nov-16 21:00N 42°20' W 070°57'3 6.1
2017-Nov-16 20:30N 42°23' W 070°54'3 6.4
2017-Nov-16 20:00N 42°23' W 070°50'3 6.5
2017-Nov-16 19:30N 42°21' W 070°46'3 7.0
2017-Nov-16 19:00N 42°19' W 070°42'4 7.1
2017-Nov-16 18:30N 42°16' W 070°39'4 7.2
2017-Nov-16 17:56N 42°13' W 070°35'101 5.5
2017-Nov-15 23:46N 41°10' W 072°20'2 4.5
2017-Nov-15 23:22N 41°09' W 072°22'2 5.3
2017-Nov-15 23:00N 41°09' W 072°25'3 5.5
2017-Nov-15 22:27N 41°09' W 072°29'3 5.6
2017-Nov-15 21:57N 41°08' W 072°32'3 5.8
2017-Nov-15 21:27N 41°07' W 072°36'3 6.4
2017-Nov-15 21:00N 41°07' W 072°40'45 7.2
2017-Nov-15 14:41N 40°55' W 073°38'3 6.5
2017-Nov-15 14:12N 40°54' W 073°42'5 6.3
2017-Nov-15 13:22N 40°50' W 073°47'2 5.7
2017-Nov-15 13:00N 40°48' W 073°47'3 6.3
2017-Nov-15 12:30N 40°48' W 073°52'3 5.4
2017-Nov-15 12:00N 40°47' W 073°55'3 6.4
2017-Nov-15 11:30N 40°45' W 073°58'3 5.7
2017-Nov-15 11:00N 40°42' W 073°60'3 6.9
2017-Nov-15 10:30N 40°40' W 074°03'0 0.3
2017-Nov-15 10:00N 40°40' W 074°03'0 0.1
2017-Nov-15 09:30N 40°40' W 074°03'0 0.3
2017-Nov-15 09:00N 40°40' W 074°03'1 2.4
2017-Nov-15 08:30N 40°39' W 074°04'2 4.9
2017-Nov-15 08:00N 40°39' W 074°07'2 4.7
2017-Nov-15 07:30N 40°39' W 074°10'2 3.5
2017-Nov-15 07:00N 40°38' W 074°12'0 0.2
2017-Nov-15 06:30N 40°38' W 074°12'0 0.0
2017-Nov-15 05:59N 40°38' W 074°12'0 0.0
2017-Nov-15 05:20N 40°38' W 074°12'0 0.0
2017-Nov-15 04:56N 40°38' W 074°12'0 0.0
2017-Nov-15 04:26N 40°38' W 074°12'0 0.0
2017-Nov-15 03:56N 40°38' W 074°12'0 0.0
2017-Nov-15 03:29N 40°38' W 074°12'0 0.0
2017-Nov-15 02:56N 40°38' W 074°12'0 0.0
2017-Nov-15 02:26N 40°38' W 074°12'0 0.0
2017-Nov-15 01:56N 40°38' W 074°12'0 0.0
2017-Nov-15 01:26N 40°38' W 074°12'0 0.0
2017-Nov-15 00:44N 40°38' W 074°12'0 0.0
2017-Nov-15 00:26N 40°38' W 074°12'0 0.0
2017-Nov-14 23:38N 40°38' W 074°12'0 0.0
2017-Nov-14 23:14N 40°38' W 074°12'0 0.0
2017-Nov-14 22:50N 40°38' W 074°12'0 0.0
2017-Nov-14 22:26N 40°38' W 074°12'0 0.0
2017-Nov-14 21:53N 40°38' W 074°12'0 0.0
2017-Nov-14 21:29N 40°38' W 074°12'0 0.0
2017-Nov-14 20:59N 40°38' W 074°12'0 0.0
2017-Nov-14 20:26N 40°38' W 074°12'0 0.0
2017-Nov-14 19:59N 40°38' W 074°12'0 0.0
2017-Nov-14 19:29N 40°38' W 074°12'0 0.0
2017-Nov-14 18:59N 40°38' W 074°12'0 0.0
2017-Nov-14 18:26N 40°38' W 074°12'0 0.0
2017-Nov-14 17:53N 40°38' W 074°12'0 0.0
2017-Nov-14 17:26N 40°38' W 074°12'0 0.0
2017-Nov-14 16:50N 40°38' W 074°12'0 0.0
2017-Nov-14 16:29N 40°38' W 074°12'0 0.0
2017-Nov-14 15:53N 40°38' W 074°12'0 0.0
2017-Nov-14 15:05N 40°38' W 074°12'0 0.0
2017-Nov-14 14:59N 40°38' W 074°12'0 0.0
2017-Nov-14 14:17N 40°38' W 074°12'0 0.0
2017-Nov-14 13:59N 40°38' W 074°12'0 0.0
2017-Nov-14 13:29N 40°38' W 074°12'0 0.0
2017-Nov-14 12:50N 40°38' W 074°12'0 0.0
2017-Nov-14 12:29N 40°38' W 074°12'0 0.0
2017-Nov-14 11:41N 40°38' W 074°12'0 0.0
2017-Nov-14 11:29N 40°38' W 074°12'0 0.0
2017-Nov-14 10:56N 40°38' W 074°12'0 0.0
2017-Nov-14 10:29N 40°38' W 074°12'0 0.0
2017-Nov-14 09:53N 40°38' W 074°12'0 0.0
2017-Nov-14 09:29N 40°38' W 074°12'0 0.0
2017-Nov-14 08:53N 40°38' W 074°12'0 0.0
2017-Nov-14 07:53N 40°38' W 074°12'0 0.0
2017-Nov-14 05:41N 40°38' W 074°12'0 0.0
2017-Nov-14 05:23N 40°38' W 074°12'0 0.0
2017-Nov-14 04:38N 40°38' W 074°12'0 0.0
2017-Nov-14 04:29N 40°38' W 074°12'0 0.0
2017-Nov-14 03:59N 40°38' W 074°12'0 0.0
2017-Nov-14 03:29N 40°38' W 074°12'0 0.0
2017-Nov-14 02:53N 40°38' W 074°12'0 0.0
2017-Nov-14 01:08N 40°38' W 074°12'0 0.0
2017-Nov-14 00:47N 40°38' W 074°12'0 0.0
2017-Nov-14 00:23N 40°38' W 074°12'0 0.0
2017-Nov-13 23:59N 40°38' W 074°12'0 0.0
2017-Nov-13 23:29N 40°38' W 074°12'0 0.0
2017-Nov-13 22:59N 40°38' W 074°12'0 0.0
2017-Nov-13 22:29N 40°38' W 074°12'0 0.0
2017-Nov-13 21:59N 40°38' W 074°12'8 0.4
2017-Nov-13 02:01N 40°40' W 074°03'0 0.0
2017-Nov-13 01:31N 40°40' W 074°03'0 0.0
2017-Nov-13 01:00N 40°40' W 074°03'0 0.1
2017-Nov-13 00:31N 40°40' W 074°03'0 0.0
2017-Nov-13 00:01N 40°40' W 074°03'0 0.2
2017-Nov-12 23:31N 40°40' W 074°03'0 0.3
2017-Nov-12 23:01N 40°40' W 074°03'0 0.1
2017-Nov-12 22:30N 40°40' W 074°03'0 0.0
2017-Nov-12 22:00N 40°40' W 074°03'3 6.9
2017-Nov-12 21:31N 40°39' W 074°07'2 4.5
2017-Nov-12 21:00N 40°38' W 074°10'0 0.0
2017-Nov-12 20:30N 40°38' W 074°10'0 0.0
2017-Nov-12 20:00N 40°38' W 074°10'0 0.0
2017-Nov-12 19:30N 40°38' W 074°10'0 0.0
2017-Nov-12 19:00N 40°38' W 074°10'0 0.0
2017-Nov-12 18:30N 40°38' W 074°10'4 7.4
2017-Nov-12 18:00N 40°39' W 074°05'2 3.9
2017-Nov-12 17:30N 40°40' W 074°03'1 1.8
2017-Nov-12 17:00N 40°39' W 074°04'1 1.8
2017-Nov-12 16:31N 40°38' W 074°04'2 4.4
2017-Nov-12 16:01N 40°39' W 074°02'3 6.9
2017-Nov-12 15:31N 40°42' W 073°59'4 8.7
2017-Nov-12 15:00N 40°46' W 073°57'5 8.2
2017-Nov-12 14:27N 40°48' W 073°51'3 7.3
2017-Nov-12 14:00N 40°49' W 073°47'49 8.4
2017-Nov-12 08:13N 41°06' W 072°47'2 9.2
2017-Nov-12 07:59N 41°06' W 072°44'4 9.4
2017-Nov-12 07:30N 41°07' W 072°38'5 9.7
2017-Nov-12 07:00N 41°08' W 072°32'5 9.9
2017-Nov-12 06:30N 41°10' W 072°25'5 9.4
2017-Nov-12 06:00N 41°11' W 072°19'5 8.7
2017-Nov-12 05:29N 41°13' W 072°14'95 6.2
2017-Nov-11 14:10N 42°15' W 070°38'3 9.0
2017-Nov-11 13:53N 42°17' W 070°41'6 8.9
2017-Nov-11 13:10N 42°22' W 070°47'4 8.7
2017-Nov-11 12:43N 42°23' W 070°52'2 8.8
2017-Nov-11 12:30N 42°22' W 070°54'5 8.4
2017-Nov-11 11:58N 42°20' W 070°59'4 8.0
2017-Nov-11 11:30N 42°23' W 071°03'1 2.3
2017-Nov-11 11:00N 42°23' W 071°01'0 0.0
2017-Nov-11 10:27N 42°23' W 071°01'0 0.0
2017-Nov-11 10:00N 42°23' W 071°01'0 0.0
2017-Nov-11 09:27N 42°23' W 071°01'0 0.0
2017-Nov-11 08:57N 42°23' W 071°01'0 0.0
2017-Nov-11 08:27N 42°23' W 071°01'0 0.0
2017-Nov-11 07:54N 42°23' W 071°01'0 0.0
2017-Nov-11 07:30N 42°23' W 071°01'0 0.0
2017-Nov-11 06:54N 42°23' W 071°01'0 0.0
2017-Nov-11 05:55N 42°23' W 071°01'0 0.1
2017-Nov-11 05:28N 42°23' W 071°02'0 0.0
2017-Nov-11 04:52N 42°23' W 071°02'0 0.0
2017-Nov-11 04:25N 42°23' W 071°02'0 0.0
2017-Nov-11 02:37N 42°23' W 071°02'0 0.0
2017-Nov-11 02:25N 42°23' W 071°02'0 0.0
2017-Nov-10 12:01N 42°23' W 071°02'0 0.0
2017-Nov-10 11:43N 42°23' W 071°02'0 0.1
2017-Nov-10 11:11N 42°23' W 071°01'0 0.0
2017-Nov-10 11:00N 42°23' W 071°01'0 0.7
2017-Nov-10 10:29N 42°23' W 071°01'0 0.0
2017-Nov-10 09:59N 42°23' W 071°01'1 2.7
2017-Nov-10 09:30N 42°23' W 071°03'1 3.0
2017-Nov-10 09:00N 42°22' W 071°02'0 0.1
2017-Nov-10 07:52N 42°22' W 071°02'0 0.1
2017-Nov-10 07:28N 42°22' W 071°02'0 0.0
2017-Nov-10 06:52N 42°22' W 071°02'0 0.1
2017-Nov-10 06:22N 42°22' W 071°02'0 0.0
2017-Nov-10 05:58N 42°22' W 071°02'0 0.0
2017-Nov-10 05:28N 42°22' W 071°02'0 0.0
2017-Nov-10 04:46N 42°22' W 071°02'0 0.0
2017-Nov-10 04:27N 42°22' W 071°02'0 0.0
2017-Nov-10 03:58N 42°22' W 071°02'0 0.0
2017-Nov-10 03:22N 42°22' W 071°02'0 0.0
2017-Nov-10 02:58N 42°22' W 071°02'0 0.2
2017-Nov-10 02:28N 42°22' W 071°02'0 0.1
2017-Nov-10 01:40N 42°21' W 071°02'0 0.0
2017-Nov-10 01:22N 42°21' W 071°02'0 0.0
2017-Nov-10 00:58N 42°21' W 071°02'0 0.0
2017-Nov-10 00:28N 42°21' W 071°02'0 0.0
2017-Nov-09 23:51N 42°21' W 071°02'0 0.1
2017-Nov-09 23:28N 42°22' W 071°02'0 0.1
2017-Nov-09 22:52N 42°22' W 071°02'0 0.1
2017-Nov-09 22:28N 42°22' W 071°02'0 0.1
2017-Nov-09 21:49N 42°22' W 071°02'0 0.1
2017-Nov-09 21:22N 42°21' W 071°02'0 0.1
2017-Nov-09 20:58N 42°21' W 071°02'0 0.2
2017-Nov-09 20:30N 42°21' W 071°02'1 1.0
2017-Nov-09 20:00N 42°21' W 071°01'3 6.7
2017-Nov-09 19:30N 42°20' W 070°57'3 6.8
2017-Nov-09 19:00N 42°23' W 070°54'3 5.4
2017-Nov-09 18:30N 42°23' W 070°50'3 6.9
2017-Nov-09 18:00N 42°22' W 070°46'4 7.1
2017-Nov-09 17:30N 42°19' W 070°43'4 7.2
2017-Nov-09 17:01N 42°16' W 070°39'92 5.1
2017-Nov-08 23:03N 41°14' W 072°09'1 9.8
2017-Nov-08 22:56N 41°14' W 072°11'910.0
2017-Nov-08 22:05N 41°11' W 072°22'1 9.7
2017-Nov-08 22:00N 41°11' W 072°23'5 9.1
2017-Nov-08 21:28N 41°09' W 072°29'4 8.5
2017-Nov-08 21:00N 41°08' W 072°34'55 6.9
2017-Nov-08 13:02N 40°53' W 073°43'4 7.4
2017-Nov-08 12:32N 40°50' W 073°46'0 7.7
2017-Nov-08 12:30N 40°50' W 073°47'3 5.6
2017-Nov-08 12:00N 40°48' W 073°50'3 6.8
2017-Nov-08 11:30N 40°48' W 073°54'3 5.1
2017-Nov-08 11:00N 40°46' W 073°57'2 4.3
2017-Nov-08 10:30N 40°45' W 073°58'2 4.3
2017-Nov-08 10:00N 40°42' W 073°59'2 3.9
2017-Nov-08 09:30N 40°41' W 074°01'2 3.8
2017-Nov-08 09:00N 40°40' W 074°03'0 0.8
2017-Nov-08 08:30N 40°40' W 074°03'1 1.4
2017-Nov-08 08:00N 40°39' W 074°03'3 6.0
2017-Nov-08 07:30N 40°39' W 074°07'3 6.0
2017-Nov-08 07:00N 40°39' W 074°11'2 4.4
2017-Nov-08 06:29N 40°36' W 074°12'0 0.0
2017-Nov-08 05:57N 40°36' W 074°12'0 0.1
2017-Nov-08 05:27N 40°36' W 074°12'0 0.0
2017-Nov-08 05:00N 40°36' W 074°12'  

Dump ship's entire track history